TAF and METAR

METAR for Gullfaks C

ENGC 020750Z 31015KT 9999 -SHRA SCT025CB BKN140 08/04 Q1004 W10/S4
Report created 2. jul 09:50
wind 15 knots from NW (310°) visibility > 10km light rain showers scattered clouds (~50% cover) at 2500 feet of type cumulonimbus broken clouds (~75% cover) at 14000 feet Temperature 8° with dewpoint at 4° (Humidity 75.84%) Pressure 1004 hPa

TAF for Gullfaks C

TAF ENGC 0206/0306 32018KT 9999 -SHRA SCT025TCU TEMPO 0206/0306 FEW025CB TEMPO 0218/0303 24030G40KT 4000 SHRA BKN012CB

between 2. jul 08:00 - 3. jul 08:00

wind 18 knots from NW (320°) visibility > 10km light rain showers scattered clouds (~50% cover) at 2500 feet of type towering cumulus

temporarily between 2. jul 08:00 - 3. jul 08:00

some clouds (~25% cover) at 2500 feet of type cumulonimbus

temporarily between 2. jul 20:00 - 3. jul 05:00

wind 30 knots from WSW (240°) with gusts up to 40 knots visibility 4000 meters rain showers broken clouds (~75% cover) at 1200 feet of type cumulonimbus